Latest Coastal Weather Observations for Mardie

IDW60701

Issued at 9:32 pm WST Sunday 29 March 2015 (issued every 10 minutes, with the page automatically refreshed every 10 minutes)

About coastal observations | Map of coastal stations | Coastal observations for WA | Marine services | Other Formats
Station Details ID: 005008 Name: MARDIE Lat: -21.19 Lon: 115.98 Height: 11.0 m
Data from the previous 72 hours. | See also: Recent months at Mardie
Date/Time
WST
Temp

°C
Wind Pressure Rain
since 9am
mm
Weather Cloud Vis
km
Sea
Height
m
Swell
Dir
 
Speed
knots
Gust
knots
hPa Trend Height
m
Period
s
Dir
29/09:30pm 28.8 SE 7 9 1013.9 - 0.0 - - - - - - -
29/09:00pm 28.6 ESE 7 9 1013.6 - 0.0 - - - - - - -
29/08:30pm 28.7 ESE 8 11 1013.3 - 0.0 - - - - - - -
29/08:00pm 29.4 SE 10 14 1013.1 - 0.0 - - - - - - -
29/07:30pm 29.8 ESE 9 11 1012.7 - 0.0 - - - - - - -
29/07:00pm 29.2 SE 8 11 1012.3 - 0.0 - - - - - - -
29/06:30pm 29.4 SSE 9 11 1011.8 - 0.0 - - - - - - -
29/06:00pm 30.1 S 7 9 1011.1 - 0.0 - - - - - - -
29/05:30pm 28.0 SSE 17 23 1011.3 - 0.0 - - - - - - -
29/05:00pm 28.2 SSE 22 27 1011.3 - 0.0 - - - - - - -
29/04:50pm 30.8 SE 13 26 1011.3 - 0.0 - - - - - - -
29/04:30pm 32.8 N 11 16 1010.2 - 0.0 - - - - - - -
29/04:00pm 34.3 N 9 14 1009.7 - 0.0 - - - - - - -
29/03:30pm 34.2 N 11 17 1009.6 - 0.0 - - - - - - -
29/03:00pm 34.1 N 12 19 1009.6 - 0.0 - - - - - - -
29/02:30pm 35.5 N 12 19 1009.9 - 0.0 - - - - - - -
29/02:00pm 35.9 N 12 18 1010.1 - 0.0 - - - - - - -
29/01:30pm 35.9 NNW 10 16 1010.1 - 0.0 - - - - - - -
29/01:00pm 35.8 NNW 8 15 1010.5 - 0.0 - - - - - - -
29/12:30pm 35.8 N 11 18 1011.0 - 0.0 - - - - - - -
29/12:00pm 35.7 NNE 10 17 1011.4 - 0.0 - - - - - - -
29/11:30am 35.1 NNE 7 12 1012.0 - 0.0 - - - - - - -
29/11:00am 35.6 NE 8 14 1012.4 - 0.0 - - - - - - -
29/10:30am 35.4 NE 7 14 1012.8 - 0.0 - - - - - - -
29/10:00am 34.7 NE 9 14 1013.1 - 0.0 - - - - - - -
29/09:30am 33.2 NE 7 11 1013.2 - 0.0 - - - - - - -
29/09:00am 32.0 ENE 7 9 1013.0 - 0.0 - - - - - - -
29/08:30am 31.2 NE 6 7 1012.9 - 0.0 - - - - - - -
29/08:00am 30.7 E 5 9 1012.7 - 0.0 - - - - - - -
29/07:30am 28.6 CALM 0 2 1012.3 - 0.0 - - - - - - -
29/07:00am 27.2 ENE 3 4 1012.0 - 0.0 - - - - - - -
29/06:30am 26.1 SE 4 5 1011.7 - 0.0 - - - - - - -
29/06:00am 25.9 SSE 2 3 1011.3 - 0.0 - - - - - - -
29/05:30am 26.0 CALM 0 0 1010.7 - 0.0 - - - - - - -
29/05:00am 25.8 SSE 3 3 1010.6 - 0.0 - - - - - - -
29/04:30am 26.1 E 5 5 1010.4 - 0.0 - - - - - - -
29/04:00am 26.4 NNE 3 4 1010.3 - 0.0 - - - - - - -
29/03:30am 26.4 NNE 2 3 1010.3 - 0.0 - - - - - - -
29/03:00am 26.8 NNE 2 3 1010.7 - 0.0 - - - - - - -
29/02:30am 27.1 CALM 0 0 1010.9 - 0.0 - - - - - - -
29/02:00am 27.3 CALM 0 0 1011.2 - 0.0 - - - - - - -
29/01:30am 27.3 NNE 2 3 1011.5 - 0.0 - - - - - - -
29/01:00am 27.8 CALM 0 2 1011.7 - 0.0 - - - - - - -
29/12:30am 28.1 NE 3 4 1012.0 - 0.0 - - - - - - -
29/12:00am 28.5 ENE 4 5 1012.4 - 0.0 - - - - - - -
 
Date/Time
WST
Temp

°C
Wind Pressure Rain
since 9am
mm
Weather Cloud Vis
km
Sea
Height
m
Swell
Dir
 
Speed
knots
Gust
knots
hPa Trend Height
m
Period
s
Dir
28/11:30pm 29.0 CALM 0 0 1012.3 - 0.0 - - - - - - -
28/11:00pm 28.9 SW 2 3 1012.2 - 0.0 - - - - - - -
28/10:30pm 29.1 SW 3 5 1012.5 - 0.0 - - - - - - -
28/10:00pm 29.6 SW 6 9 1012.9 - 0.0 - - - - - - -
28/09:30pm 29.8 SW 6 9 1013.0 - 0.0 - - - - - - -
28/09:00pm 29.6 WSW 4 6 1012.7 - 0.0 - - - - - - -
28/08:30pm 29.8 W 4 6 1012.8 - 0.0 - - - - - - -
28/08:00pm 30.1 W 5 7 1012.3 - 0.0 - - - - - - -
28/07:30pm 30.2 W 5 7 1011.9 - 0.0 - - - - - - -
28/07:00pm 30.6 W 5 7 1011.7 - 0.0 - - - - - - -
28/06:30pm 30.9 WSW 7 9 1011.3 - 0.0 - - - - - - -
28/06:00pm 31.1 W 7 10 1010.7 - 0.0 - - - - - - -
28/05:30pm 32.1 WNW 8 10 1010.1 - 0.0 - - - - - - -
28/05:00pm 32.8 NW 10 14 1009.9 - 0.0 - - - - - - -
28/04:30pm 33.0 NW 10 14 1009.9 - 0.0 - - - - - - -
28/04:00pm 33.9 NW 9 13 1009.8 - 0.0 - - - - - - -
28/03:30pm 34.0 NNW 10 15 1010.0 - 0.0 - - - - - - -
28/03:00pm 34.0 NW 9 13 1010.0 - 0.0 - - - - - - -
28/02:30pm 35.1 NW 10 18 1010.1 - 0.0 - - - - - - -
28/02:00pm 34.8 NW 9 13 1010.4 - 0.0 - - - - - - -
28/01:30pm 34.9 NW 9 15 1010.9 - 0.0 - - - - - - -
28/01:00pm 35.0 NNW 9 14 1011.2 - 0.0 - - - - - - -
28/12:30pm 34.1 NNW 8 13 1011.5 - 0.0 - - - - - - -
28/12:00pm 35.2 N 6 11 1012.0 - 0.0 - - - - - - -
28/11:30am 36.3 NE 6 13 1012.4 - 0.0 - - - - - - -
28/11:00am 35.6 NE 6 13 1012.8 - 0.0 - - - - - - -
28/10:30am 35.8 ENE 7 12 1013.3 - 0.0 - - - - - - -
28/10:00am 34.3 ESE 7 13 1013.5 - 0.0 - - - - - - -
28/09:30am 33.4 E 8 13 1013.9 - 0.0 - - - - - - -
28/09:00am 31.8 ESE 9 12 1014.1 - 0.0 - - - - - - -
28/08:30am 31.5 ESE 9 13 1013.8 - 0.0 - - - - - - -
28/08:00am 30.1 ESE 6 8 1013.6 - 0.0 - - - - - - -
28/07:30am 29.2 ESE 5 7 1013.3 - 0.0 - - - - - - -
28/07:00am 27.6 ESE 4 6 1013.1 - 0.0 - - - - - - -
28/06:30am 26.4 E 5 5 1012.7 - 0.0 - - - - - - -
28/06:00am 26.6 ESE 3 4 1012.6 - 0.0 - - - - - - -
28/05:30am 27.1 E 3 4 1012.3 - 0.0 - - - - - - -
28/05:00am 27.7 E 5 6 1012.0 - 0.0 - - - - - - -
28/04:30am 28.3 E 5 7 1011.9 - 0.0 - - - - - - -
28/04:00am 28.6 ESE 6 7 1011.7 - 0.0 - - - - - - -
28/03:30am 28.9 ESE 6 8 1011.7 - 0.0 - - - - - - -
28/03:00am 28.3 SE 4 6 1011.7 - 0.0 - - - - - - -
28/02:30am 28.3 SE 3 4 1011.8 - 0.0 - - - - - - -
28/02:00am 28.8 SE 4 5 1011.9 - 0.0 - - - - - - -
28/01:30am 28.6 SE 6 7 1012.1 - 0.0 - - - - - - -
28/01:00am 28.3 ENE 2 4 1012.3 - 0.0 - - - - - - -
28/12:30am 28.7 ENE 2 3 1012.4 - 0.0 - - - - - - -
28/12:00am 28.9 ENE 2 3 1012.7 - 0.0 - - - - - - -
 
Date/Time
WST
Temp

°C
Wind Pressure Rain
since 9am
mm
Weather Cloud Vis
km
Sea
Height
m
Swell
Dir
 
Speed
knots
Gust
knots
hPa Trend Height
m
Period
s
Dir
27/11:30pm 29.1 ENE 4 5 1012.9 - 0.0 - - - - - - -
27/11:00pm 29.1 ENE 5 6 1013.1 - 0.0 - - - - - - -
27/10:30pm 29.5 E 5 7 1013.2 - 0.0 - - - - - - -
27/10:00pm 29.6 NE 5 6 1013.2 - 0.0 - - - - - - -
27/09:30pm 29.9 NE 4 5 1013.3 - 0.0 - - - - - - -
27/09:00pm 30.1 CALM 0 2 1013.5 - 0.0 - - - - - - -
27/08:30pm 29.8 W 2 5 1013.4 - 0.0 - - - - - - -
27/08:00pm 29.9 W 6 8 1012.8 - 0.0 - - - - - - -
27/07:30pm 30.1 W 7 10 1012.6 - 0.0 - - - - - - -
27/07:00pm 30.1 W 7 10 1012.4 - 0.0 - - - - - - -
27/06:30pm 30.5 WNW 7 8 1011.9 - 0.0 - - - - - - -
27/06:00pm 31.1 WNW 7 10 1011.5 - 0.0 - - - - - - -
27/05:30pm 32.3 WNW 9 13 1011.3 - 0.0 - - - - - - -
27/05:00pm 32.9 NW 9 13 1011.2 - 0.0 - - - - - - -
27/04:30pm 33.7 NW 8 13 1010.9 - 0.0 - - - - - - -
27/04:00pm 33.9 NW 9 13 1010.7 - 0.0 - - - - - - -
27/03:30pm 33.8 NW 10 16 1010.7 - 0.0 - - - - - - -
27/03:00pm 34.1 NW 10 14 1010.7 - 0.0 - - - - - - -
27/02:30pm 34.8 NW 11 15 1011.0 - 0.0 - - - - - - -
27/02:00pm 35.1 NW 11 15 1011.2 - 0.0 - - - - - - -
27/01:30pm 36.2 NW 10 15 1011.3 - 0.0 - - - - - - -
27/01:00pm 36.2 NW 10 15 1011.5 - 0.0 - - - - - - -
27/12:30pm 36.1 WNW 10 13 1012.3 - 0.0 - - - - - - -
27/12:00pm 38.0 NE 2 4 1012.7 - 0.0 - - - - - - -
27/11:30am 37.2 NE 4 8 1013.1 - 0.0 - - - - - - -
27/11:00am 36.2 ENE 4 8 1013.6 - 0.0 - - - - - - -
27/10:30am 35.3 E 7 11 1014.1 - 0.0 - - - - - - -
27/10:00am 34.3 E 11 15 1014.3 - 0.0 - - - - - - -
27/09:30am 34.3 E 9 15 1014.6 - 0.0 - - - - - - -
27/09:00am 33.1 ESE 10 13 1014.7 - 0.0 - - - - - - -
27/08:30am 31.3 E 10 14 1014.8 - 0.0 - - - - - - -
27/08:00am 29.4 ESE 4 6 1014.8 - 0.0 - - - - - - -
27/07:30am 27.9 CALM 0 0 1014.7 - 0.0 - - - - - - -
27/07:00am 25.8 CALM 0 2 1014.5 - 0.0 - - - - - - -
27/06:30am 25.1 ESE 1 2 1014.2 - 0.0 - - - - - - -
27/06:00am 25.1 CALM 0 0 1014.2 - 0.0 - - - - - - -
27/05:30am 25.3 CALM 0 0 1013.9 - 0.0 - - - - - - -
27/05:00am 25.6 CALM 0 0 1013.7 - 0.0 - - - - - - -
27/04:30am 26.5 CALM 0 0 1013.7 - 0.0 - - - - - - -
27/04:00am 26.9 ESE 1 3 1013.6 - 0.0 - - - - - - -
27/03:30am 27.4 ESE 4 6 1013.6 - 0.0 - - - - - - -
27/03:00am 27.5 SE 5 6 1013.8 - 0.0 - - - - - - -
27/02:30am 27.5 SE 5 6 1014.0 - 0.0 - - - - - - -
27/02:00am 27.7 SE 6 7 1014.0 - 0.0 - - - - - - -
27/01:30am 27.8 SSE 8 9 1014.2 - 0.0 - - - - - - -
27/01:00am 27.7 S 6 8 1014.5 - 0.0 - - - - - - -
27/12:30am 27.5 SSE 4 5 1014.4 - 0.0 - - - - - - -
27/12:00am 28.1 SE 5 6 1014.6 - 0.0 - - - - - - -
 
Date/Time
WST
Temp

°C
Wind Pressure Rain
since 9am
mm
Weather Cloud Vis
km
Sea
Height
m
Swell
Dir
 
Speed
knots
Gust
knots
hPa Trend Height
m
Period
s
Dir
26/11:30pm 28.6 SSE 6 8 1014.8 - 0.0 - - - - - - -
26/11:00pm 29.0 SE 9 11 1015.0 - 0.0 - - - - - - -
26/10:30pm 29.4 SE 11 14 1015.1 - 0.0 - - - - - - -
26/10:00pm 29.8 SE 14 19 1015.0 - 0.0 - - - - - - -

Other Formats:

Comma delimited format used in spreadsheet applications
http://www.bom.gov.au/fwo/IDW60701/IDW60701.94306.axf

JavaScript Object Notation format (JSON) in row-major order
http://www.bom.gov.au/fwo/IDW60701/IDW60701.94306.json